Time;durP1;ratioP1;P1;durP2;ratioP2;P2;SDS_P1;SDS_P2;PMS_P1;PMS_P2;Temp;Humidity;BMP_temperature;BMP_pressure;BME280_temperature;BME280_humidity;BME280_pressure;Samples;Min_cycle;Max_cycle;Signal;HPM_P1;HPM_P2
2022/07/08 00:01:33;;;;;;;1.55;1.40;;;14.30;99.90;;;;;;6125749;23;20161;-72
2022/07/08 00:03:59;;;;;;;1.90;1.40;;;14.20;99.90;;;;;;6125140;23;20206;-72
2022/07/08 00:06:25;;;;;;;3.95;1.38;;;14.10;99.90;;;;;;6125317;23;20161;-74
2022/07/08 00:08:51;;;;;;;1.30;1.30;;;14.00;99.90;;;;;;6125385;23;20189;-73
2022/07/08 00:11:17;;;;;;;1.50;1.40;;;14.00;99.90;;;;;;6125487;23;20671;-72
2022/07/08 00:13:42;;;;;;;1.52;1.42;;;14.00;99.90;;;;;;6125333;23;20154;-72
2022/07/08 00:16:08;;;;;;;5.30;2.03;;;13.90;99.90;;;;;;6125687;23;20154;-72
2022/07/08 00:18:34;;;;;;;3.70;1.63;;;13.90;99.90;;;;;;6125362;23;20157;-72
2022/07/08 00:21:00;;;;;;;2.25;1.95;;;13.90;99.90;;;;;;6125354;23;20173;-72
2022/07/08 00:23:25;;;;;;;2.72;1.60;;;13.90;99.90;;;;;;6125088;23;20177;-72
2022/07/08 00:25:51;;;;;;;1.75;1.30;;;13.90;99.90;;;;;;6125518;23;20165;-72
2022/07/08 00:28:16;;;;;;;4.28;1.63;;;13.90;99.90;;;;;;6125341;23;20150;-72
2022/07/08 00:30:42;;;;;;;3.60;2.08;;;13.80;99.90;;;;;;6125361;23;20170;-71
2022/07/08 00:33:08;;;;;;;3.17;2.10;;;13.80;99.90;;;;;;6125632;23;20150;-72
2022/07/08 00:35:33;;;;;;;2.97;1.88;;;13.70;99.90;;;;;;6125506;23;20257;-71
2022/07/08 00:37:59;;;;;;;6.63;2.15;;;13.70;99.90;;;;;;6125629;23;20161;-71
2022/07/08 00:40:25;;;;;;;3.92;2.05;;;13.60;99.90;;;;;;6125493;23;20173;-71
2022/07/08 00:42:50;;;;;;;3.53;1.98;;;13.60;99.90;;;;;;6125019;23;20206;-71
2022/07/08 00:45:16;;;;;;;2.50;1.65;;;13.50;99.90;;;;;;6125193;23;20157;-71
2022/07/08 00:47:43;;;;;;;6.53;2.35;;;13.50;99.90;;;;;;6125576;23;20158;-71
2022/07/08 00:50:12;;;;;;;3.47;1.75;;;13.50;99.90;;;;;;6125150;23;20615;-72
2022/07/08 00:52:38;;;;;;;3.95;1.90;;;13.40;99.90;;;;;;6125464;23;20150;-72
2022/07/08 00:55:06;;;;;;;4.72;2.10;;;13.30;99.90;;;;;;6125156;23;20174;-72
2022/07/08 00:57:33;;;;;;;7.05;1.88;;;13.20;99.90;;;;;;6125494;23;20666;-73
2022/07/08 00:59:59;;;;;;;3.38;1.67;;;13.20;99.90;;;;;;6124913;23;20177;-73
2022/07/08 01:02:24;;;;;;;2.33;1.58;;;13.20;99.90;;;;;;6125277;23;20169;-72
2022/07/08 01:04:50;;;;;;;3.42;1.77;;;13.20;99.90;;;;;;6125033;23;20173;-72
2022/07/08 01:07:17;;;;;;;4.20;1.92;;;13.10;99.90;;;;;;6125370;23;20468;-71
2022/07/08 01:09:42;;;;;;;4.45;2.20;;;13.10;99.90;;;;;;6124915;23;20166;-74
2022/07/08 01:12:08;;;;;;;2.53;2.15;;;13.00;99.90;;;;;;6099075;23;20196;-72
2022/07/08 01:14:34;;;;;;;5.93;2.20;;;13.00;99.90;;;;;;6125107;23;20201;-72
2022/07/08 01:17:00;;;;;;;6.72;2.55;;;13.00;99.90;;;;;;6124749;23;20154;-71
2022/07/08 01:19:26;;;;;;;2.53;1.67;;;13.00;99.90;;;;;;6125061;23;20209;-72
2022/07/08 01:21:51;;;;;;;5.93;2.05;;;12.90;99.90;;;;;;6098944;23;20173;-73
2022/07/08 01:24:18;;;;;;;4.75;2.08;;;12.90;99.90;;;;;;6125105;23;20186;-73
2022/07/08 01:26:44;;;;;;;2.17;1.77;;;12.80;99.90;;;;;;6124988;23;20150;-72
2022/07/08 01:29:11;;;;;;;1.70;1.27;;;12.80;99.90;;;;;;6124693;23;20150;-73
2022/07/08 01:31:37;;;;;;;3.80;1.95;;;12.70;99.90;;;;;;6125290;23;20145;-73
2022/07/08 01:34:03;;;;;;;8.75;2.45;;;12.70;99.90;;;;;;6125248;23;20189;-73
2022/07/08 01:36:29;;;;;;;3.17;1.65;;;12.60;99.90;;;;;;6124901;23;20229;-73
2022/07/08 01:38:54;;;;;;;4.00;2.22;;;12.50;99.90;;;;;;6124601;23;20201;-72
2022/07/08 01:41:20;;;;;;;3.72;1.65;;;12.40;99.90;;;;;;6125477;23;20208;-71
2022/07/08 01:43:45;;;;;;;4.38;2.00;;;12.40;99.90;;;;;;6125779;23;20178;-75
2022/07/08 01:46:11;;;;;;;3.65;1.80;;;12.50;99.90;;;;;;6125177;23;20207;-74
2022/07/08 01:48:37;;;;;;;2.70;1.80;;;12.40;99.90;;;;;;6124243;23;20153;-73
2022/07/08 01:51:03;;;;;;;3.30;2.20;;;12.40;99.90;;;;;;6124593;23;20236;-73
2022/07/08 01:53:28;;;;;;;10.23;2.65;;;12.40;99.90;;;;;;6124732;23;20606;-73
2022/07/08 01:55:54;;;;;;;2.83;1.55;;;12.40;99.90;;;;;;6124456;23;20218;-71
2022/07/08 01:58:20;;;;;;;4.63;2.05;;;12.50;99.90;;;;;;6124894;23;20591;-71
2022/07/08 02:00:45;;;;;;;2.65;1.52;;;12.50;99.90;;;;;;6124811;23;20245;-74
2022/07/08 02:03:11;;;;;;;3.67;2.00;;;12.40;99.90;;;;;;6125358;23;20521;-73
2022/07/08 02:05:37;;;;;;;5.60;2.53;;;12.40;99.90;;;;;;6125006;23;20150;-72
2022/07/08 02:08:03;;;;;;;5.63;2.13;;;12.30;99.90;;;;;;6124977;23;20201;-71
2022/07/08 02:12:18;;;;;;;6.15;1.98;;;12.40;99.90;;;;;;6124799;23;20173;-72
2022/07/08 02:13:16;;;;;;;4.18;2.08;;;12.30;99.90;;;;;;6124642;23;20633;-72
2022/07/08 02:15:42;;;;;;;2.78;1.67;;;12.30;99.90;;;;;;6124741;23;20626;-73
2022/07/08 02:18:08;;;;;;;4.80;2.05;;;12.20;99.90;;;;;;6125333;23;20231;-72
2022/07/08 02:20:33;;;;;;;5.78;2.15;;;12.20;99.90;;;;;;6124867;23;20552;-72
2022/07/08 02:22:59;;;;;;;3.90;1.50;;;12.10;99.90;;;;;;6125234;23;20174;-73
2022/07/08 02:25:25;;;;;;;1.58;1.40;;;12.10;99.90;;;;;;6125014;23;20464;-72
2022/07/08 02:27:50;;;;;;;5.25;1.80;;;12.00;99.90;;;;;;6125023;23;20587;-71
2022/07/08 02:30:16;;;;;;;4.57;2.25;;;11.90;99.90;;;;;;6124414;23;20249;-71
2022/07/08 02:32:41;;;;;;;4.15;1.83;;;11.90;99.90;;;;;;6124831;23;20158;-73
2022/07/08 02:35:08;;;;;;;3.92;1.88;;;11.80;99.90;;;;;;6125521;23;20158;-72
2022/07/08 02:37:33;;;;;;;2.42;1.77;;;11.70;99.90;;;;;;6123474;23;20670;-71
2022/07/08 02:39:59;;;;;;;3.33;2.00;;;11.70;99.90;;;;;;6125150;23;20197;-71
2022/07/08 02:42:24;;;;;;;4.00;2.08;;;11.70;99.90;;;;;;6126567;23;20154;-72
2022/07/08 02:44:50;;;;;;;2.80;1.85;;;11.70;99.90;;;;;;6126426;23;20146;-72
2022/07/08 02:47:16;;;;;;;4.20;1.92;;;11.70;99.90;;;;;;6125844;23;20614;-71
2022/07/08 02:49:41;;;;;;;3.03;2.00;;;11.70;99.90;;;;;;6122993;23;20170;-71
2022/07/08 02:52:07;;;;;;;3.22;2.15;;;11.70;99.90;;;;;;6124565;23;20146;-72
2022/07/08 02:54:33;;;;;;;4.03;1.92;;;11.70;99.90;;;;;;6124455;23;20618;-73
2022/07/08 02:56:58;;;;;;;5.25;1.90;;;11.70;99.90;;;;;;6123928;23;20154;-73
2022/07/08 02:59:24;;;;;;;1.98;1.55;;;11.60;99.90;;;;;;6099536;23;20246;-74
2022/07/08 03:01:50;;;;;;;4.03;2.28;;;11.60;99.90;;;;;;6126628;23;20166;-72
2022/07/08 03:04:15;;;;;;;3.28;2.00;;;11.50;99.90;;;;;;6126068;23;20543;-73
2022/07/08 03:06:41;;;;;;;4.13;2.00;;;11.50;99.90;;;;;;6125434;23;20146;-73
2022/07/08 03:09:07;;;;;;;6.05;2.53;;;11.50;99.90;;;;;;6125580;23;20154;-72
2022/07/08 03:11:33;;;;;;;3.33;2.22;;;11.50;99.90;;;;;;6126150;23;20150;-72
2022/07/08 03:13:58;;;;;;;4.30;2.40;;;11.40;99.90;;;;;;6126204;23;20177;-74
2022/07/08 03:16:24;;;;;;;3.45;2.05;;;11.30;99.90;;;;;;6125946;23;20150;-74
2022/07/08 03:18:49;;;;;;;5.65;2.03;;;11.30;99.90;;;;;;6125683;23;20150;-72
2022/07/08 03:21:15;;;;;;;8.55;2.55;;;11.20;99.90;;;;;;6122974;23;20528;-74
2022/07/08 03:23:41;;;;;;;4.85;2.20;;;11.20;99.90;;;;;;6125567;23;20170;-73
2022/07/08 03:26:06;;;;;;;4.90;2.22;;;11.20;99.90;;;;;;6126031;23;20135;-74
2022/07/08 03:28:32;;;;;;;4.22;1.92;;;11.20;99.90;;;;;;6126158;23;20729;-73
2022/07/08 03:30:58;;;;;;;3.97;2.30;;;11.10;99.90;;;;;;6125400;23;20245;-73
2022/07/08 03:33:24;;;;;;;4.15;2.20;;;11.10;99.90;;;;;;6125908;23;20154;-72
2022/07/08 03:35:49;;;;;;;5.25;2.13;;;11.10;99.90;;;;;;6126081;23;20182;-72
2022/07/08 03:38:16;;;;;;;4.60;2.05;;;11.20;99.90;;;;;;6125407;23;20362;-73
2022/07/08 03:43:26;;;;;;;3.35;2.17;;;11.10;99.90;;;;;;6125726;23;20228;-73
2022/07/08 03:45:51;;;;;;;3.47;2.03;;;11.20;99.90;;;;;;6126030;23;20224;-73
2022/07/08 03:48:17;;;;;;;7.43;2.70;;;11.20;99.90;;;;;;6125279;23;20170;-73
2022/07/08 03:50:43;;;;;;;4.25;2.30;;;11.20;99.90;;;;;;6125517;23;20170;-73
2022/07/08 03:53:08;;;;;;;4.63;2.08;;;11.20;99.90;;;;;;6125904;23;20228;-73
2022/07/08 03:55:34;;;;;;;3.83;2.35;;;11.20;99.90;;;;;;6125765;23;20154;-73
2022/07/08 03:58:00;;;;;;;5.30;2.25;;;11.30;99.90;;;;;;6125233;23;20383;-72
2022/07/08 04:00:25;;;;;;;4.78;1.83;;;11.30;99.90;;;;;;6125371;23;20170;-73
2022/07/08 04:02:51;;;;;;;3.90;2.03;;;11.30;99.90;;;;;;6125523;23;20265;-72
2022/07/08 04:05:17;;;;;;;4.55;2.38;;;11.40;99.90;;;;;;6125279;23;20146;-73
2022/07/08 04:07:42;;;;;;;6.88;2.70;;;11.40;99.90;;;;;;6126040;23;20150;-73
2022/07/08 04:10:09;;;;;;;5.40;2.13;;;11.50;99.90;;;;;;6125280;23;20209;-73
2022/07/08 04:12:34;;;;;;;2.53;1.90;;;11.60;99.90;;;;;;6125615;23;20230;-73
2022/07/08 04:15:00;;;;;;;3.13;1.75;;;11.70;99.90;;;;;;6124911;23;20154;-73
2022/07/08 04:17:26;;;;;;;4.22;1.90;;;11.70;99.90;;;;;;6125509;23;20146;-73
2022/07/08 04:19:52;;;;;;;6.50;2.17;;;11.80;99.90;;;;;;6125300;23;20170;-73
2022/07/08 04:22:17;;;;;;;6.38;2.35;;;11.80;99.90;;;;;;6125076;23;20221;-73
2022/07/08 04:24:43;;;;;;;5.70;2.30;;;11.80;99.90;;;;;;6125440;23;20182;-73
2022/07/08 04:27:08;;;;;;;3.35;1.90;;;11.90;99.90;;;;;;6125890;23;20178;-72
2022/07/08 04:29:34;;;;;;;3.33;1.88;;;11.90;99.90;;;;;;6124957;23;20638;-74
2022/07/08 04:32:00;;;;;;;6.32;1.92;;;12.00;99.90;;;;;;6125166;23;20146;-73
2022/07/08 04:34:26;;;;;;;3.95;1.85;;;12.00;99.90;;;;;;6125733;23;20471;-73
2022/07/08 04:36:51;;;;;;;5.32;2.13;;;12.00;99.90;;;;;;6125597;23;20161;-72
2022/07/08 04:39:17;;;;;;;5.03;2.08;;;12.00;99.90;;;;;;6124907;23;20536;-71
2022/07/08 04:41:42;;;;;;;5.28;2.22;;;12.00;99.90;;;;;;6125533;23;20178;-72
2022/07/08 04:44:08;;;;;;;4.00;1.70;;;12.00;99.90;;;;;;6125621;23;20177;-73
2022/07/08 04:46:34;;;;;;;4.75;1.85;;;12.00;99.90;;;;;;6126009;23;20234;-72
2022/07/08 04:48:59;;;;;;;3.00;2.00;;;12.00;99.90;;;;;;6125613;23;20154;-71
2022/07/08 04:51:25;;;;;;;5.78;2.08;;;12.00;99.90;;;;;;6125727;23;20244;-73
2022/07/08 04:53:50;;;;;;;5.07;2.10;;;12.10;99.90;;;;;;6125787;23;20154;-73
2022/07/08 04:56:16;;;;;;;3.60;1.70;;;12.40;99.90;;;;;;6125820;23;20170;-73
2022/07/08 04:58:42;;;;;;;2.85;1.90;;;12.60;99.90;;;;;;6125107;23;20158;-74
2022/07/08 05:01:08;;;;;;;4.95;2.38;;;12.70;99.90;;;;;;6125448;23;20196;-73
2022/07/08 05:03:33;;;;;;;5.13;2.17;;;12.90;99.90;;;;;;6126105;23;20683;-73
2022/07/08 05:05:59;;;;;;;4.70;1.73;;;13.00;99.90;;;;;;6125581;23;20221;-72
2022/07/08 05:08:25;;;;;;;6.22;2.13;;;13.00;99.90;;;;;;6125412;23;20190;-74
2022/07/08 05:10:50;;;;;;;4.00;1.65;;;13.00;99.90;;;;;;6123997;23;20170;-73
2022/07/08 05:13:16;;;;;;;6.03;1.83;;;13.00;99.90;;;;;;6125689;23;20149;-73
2022/07/08 05:15:42;;;;;;;3.35;1.83;;;13.10;99.90;;;;;;6125921;23;20180;-72
2022/07/08 05:18:08;;;;;;;7.55;2.35;;;13.20;99.90;;;;;;6125539;23;20546;-72
2022/07/08 05:20:33;;;;;;;7.55;1.83;;;13.30;99.90;;;;;;6125836;23;20257;-74
2022/07/08 05:22:59;;;;;;;2.92;1.98;;;13.50;99.90;;;;;;6099424;23;20186;-75
2022/07/08 05:25:25;;;;;;;2.67;1.98;;;13.60;99.90;;;;;;6125149;23;20162;-74
2022/07/08 05:27:51;;;;;;;2.55;1.60;;;13.60;99.90;;;;;;6125410;23;20225;-74
2022/07/08 05:30:16;;;;;;;5.60;1.98;;;13.60;99.90;;;;;;6125450;23;20170;-74
2022/07/08 05:32:42;;;;;;;3.60;1.95;;;13.60;99.90;;;;;;6125608;23;20157;-73
2022/07/08 05:35:09;;;;;;;3.80;1.65;;;13.60;99.90;;;;;;6099521;23;20165;-73
2022/07/08 05:37:38;;;;;;;3.08;1.70;;;13.50;99.90;;;;;;6125639;23;20689;-74
2022/07/08 05:40:10;;;;;;;2.40;1.77;;;13.40;99.90;;;;;;6126620;23;20173;-79
2022/07/08 05:42:36;;;;;;;3.50;1.80;;;13.40;99.90;;;;;;6121897;23;20169;-76
2022/07/08 05:45:02;;;;;;;4.00;1.73;;;13.40;99.90;;;;;;6125962;23;20146;-74
2022/07/08 05:47:27;;;;;;;3.17;1.80;;;13.30;99.90;;;;;;6128000;23;20150;-75
2022/07/08 05:49:56;;;;;;;6.80;2.08;;;13.30;99.90;;;;;;6102251;23;20174;-77
2022/07/08 05:52:21;;;;;;;6.55;2.28;;;13.40;99.90;;;;;;6131451;23;20142;-77
2022/07/08 05:54:48;;;;;;;4.68;2.20;;;13.60;99.90;;;;;;6127926;23;20145;-76
2022/07/08 05:57:14;;;;;;;6.97;2.03;;;14.00;99.90;;;;;;6100349;23;20165;-80
2022/07/08 05:59:41;;;;;;;6.47;2.13;;;14.20;99.90;;;;;;6128556;23;20643;-76
2022/07/08 06:02:07;;;;;;;3.53;1.77;;;14.40;99.90;;;;;;6126928;23;20181;-74
2022/07/08 06:04:32;;;;;;;4.30;1.70;;;14.60;99.90;;;;;;6125520;23;20174;-73
2022/07/08 06:06:58;;;;;;;5.07;1.70;;;14.90;99.90;;;;;;6125455;23;20205;-75
2022/07/08 06:09:24;;;;;;;2.17;1.40;;;14.90;99.90;;;;;;6124480;23;20455;-75
2022/07/08 06:11:50;;;;;;;2.38;1.77;;;15.00;99.90;;;;;;6124347;23;20150;-74
2022/07/08 06:14:16;;;;;;;4.30;1.70;;;15.20;99.90;;;;;;6127027;23;20594;-75
2022/07/08 06:16:41;;;;;;;4.10;2.00;;;15.30;99.90;;;;;;6126657;23;20469;-77
2022/07/08 06:19:08;;;;;;;7.43;1.70;;;15.40;99.90;;;;;;6126241;23;20153;-79
2022/07/08 06:21:34;;;;;;;4.18;1.75;;;15.60;99.90;;;;;;6127263;23;20150;-74
2022/07/08 06:24:00;;;;;;;3.30;2.03;;;15.80;99.90;;;;;;6126206;23;20264;-74
2022/07/08 06:26:27;;;;;;;5.32;1.92;;;16.00;99.90;;;;;;6126352;23;20546;-74
2022/07/08 06:28:52;;;;;;;5.07;1.70;;;16.10;99.90;;;;;;6126458;23;20178;-77
2022/07/08 06:31:18;;;;;;;3.65;1.52;;;16.30;99.90;;;;;;6127179;23;20173;-78
2022/07/08 06:33:44;;;;;;;5.25;1.92;;;16.40;99.90;;;;;;6130936;23;20142;-77
2022/07/08 06:36:09;;;;;;;3.40;1.85;;;16.60;99.90;;;;;;6100908;23;20212;-78
2022/07/08 06:38:35;;;;;;;4.00;1.92;;;16.90;99.90;;;;;;6100071;23;20633;-78
2022/07/08 06:41:01;;;;;;;3.08;1.70;;;16.90;99.90;;;;;;6127138;23;20178;-77
2022/07/08 06:43:26;;;;;;;4.03;1.65;;;17.20;99.90;;;;;;6126222;23;20517;-77
2022/07/08 06:45:52;;;;;;;4.93;1.90;;;17.50;99.90;;;;;;6100768;23;20158;-77
2022/07/08 06:48:18;;;;;;;3.47;1.80;;;17.80;99.90;;;;;;6127126;23;20170;-77
2022/07/08 06:50:43;;;;;;;2.58;1.70;;;18.20;99.90;;;;;;6126587;23;20170;-78
2022/07/08 06:53:09;;;;;;;5.22;2.05;;;18.30;99.90;;;;;;6101223;23;20158;-78
2022/07/08 06:55:35;;;;;;;5.15;1.70;;;18.40;99.90;;;;;;6098707;23;20161;-78
2022/07/08 06:58:00;;;;;;;6.53;1.83;;;18.60;99.90;;;;;;6126249;23;20249;-78
2022/07/08 07:00:26;;;;;;;2.78;1.30;;;18.90;99.90;;;;;;6099614;23;20265;-79
2022/07/08 07:02:52;;;;;;;6.22;1.77;;;19.10;99.90;;;;;;6126892;23;20256;-78
2022/07/08 07:05:19;;;;;;;1.83;1.50;;;19.30;99.90;;;;;;6124979;23;20146;-77
2022/07/08 07:07:45;;;;;;;3.25;1.92;;;19.30;99.90;;;;;;6125158;23;20146;-77
2022/07/08 07:10:11;;;;;;;4.28;1.50;;;19.40;99.90;;;;;;6126622;23;20166;-77
2022/07/08 07:12:37;;;;;;;2.42;1.35;;;19.40;99.90;;;;;;6127131;23;20219;-78
2022/07/08 07:15:03;;;;;;;3.58;1.58;;;19.30;99.90;;;;;;6126004;23;20146;-77
2022/07/08 07:17:28;;;;;;;4.28;1.92;;;19.10;99.90;;;;;;6125373;23;20197;-77
2022/07/08 07:19:54;;;;;;;1.45;1.33;;;19.00;99.90;;;;;;6125149;23;20513;-78
2022/07/08 07:22:20;;;;;;;3.60;1.67;;;19.20;99.90;;;;;;6124567;23;20229;-78
2022/07/08 07:24:46;;;;;;;3.35;1.92;;;19.30;99.90;;;;;;6125091;23;20288;-76
2022/07/08 07:27:11;;;;;;;3.15;1.58;;;19.50;99.90;;;;;;6125779;23;20170;-77
2022/07/08 07:29:37;;;;;;;2.78;1.58;;;19.70;99.90;;;;;;6125127;23;20237;-77
2022/07/08 07:32:03;;;;;;;4.82;1.70;;;19.80;99.90;;;;;;6124630;23;20495;-77
2022/07/08 07:34:29;;;;;;;5.20;1.80;;;19.80;99.90;;;;;;6125071;23;20165;-77
2022/07/08 07:36:55;;;;;;;2.97;1.30;;;19.50;99.90;;;;;;6124881;23;20160;-79
2022/07/08 07:39:20;;;;;;;6.07;1.63;;;19.10;99.90;;;;;;6125219;23;20150;-76
2022/07/08 07:41:46;;;;;;;3.22;1.60;;;18.90;99.90;;;;;;6100642;23;20502;-76
2022/07/08 07:44:12;;;;;;;3.00;1.58;;;19.10;99.90;;;;;;6127631;23;20181;-79
2022/07/08 07:46:37;;;;;;;5.45;1.77;;;19.20;99.90;;;;;;6126558;23;20150;-74
2022/07/08 07:49:03;;;;;;;2.38;1.05;;;19.20;99.90;;;;;;6126254;23;20150;-73
2022/07/08 07:51:29;;;;;;;3.78;1.60;;;19.10;99.90;;;;;;6125263;23;20193;-78
2022/07/08 07:53:55;;;;;;;4.75;2.17;;;19.10;99.90;;;;;;6126796;23;20595;-71
2022/07/08 07:56:21;;;;;;;3.65;1.75;;;19.20;99.90;;;;;;6124647;23;20138;-73
2022/07/08 07:58:47;;;;;;;4.93;1.83;;;19.40;99.90;;;;;;6125936;23;20154;-72
2022/07/08 08:01:13;;;;;;;2.75;1.77;;;19.40;99.90;;;;;;6123933;23;20256;-72
2022/07/08 08:03:38;;;;;;;3.97;1.40;;;19.40;99.90;;;;;;6124653;23;20166;-73
2022/07/08 08:06:05;;;;;;;6.40;1.42;;;19.70;99.90;;;;;;6124935;23;20587;-73
2022/07/08 08:08:33;;;;;;;4.05;1.60;;;20.00;99.90;;;;;;6124293;23;20475;-74
2022/07/08 08:11:00;;;;;;;4.65;1.88;;;20.40;99.60;;;;;;6124467;23;20197;-74
2022/07/08 08:13:25;;;;;;;3.40;1.50;;;20.60;99.90;;;;;;6124739;23;20543;-74
2022/07/08 08:15:51;;;;;;;3.85;1.98;;;20.70;99.30;;;;;;6124544;23;20157;-74
2022/07/08 08:18:16;;;;;;;2.97;1.45;;;20.90;97.80;;;;;;6124533;23;20232;-74
2022/07/08 08:20:42;;;;;;;3.90;2.08;;;21.10;96.80;;;;;;6123900;23;20178;-71
2022/07/08 08:23:09;;;;;;;3.53;1.50;;;21.10;96.90;;;;;;6125077;23;20260;-74
2022/07/08 08:25:35;;;;;;;2.55;1.55;;;20.90;97.30;;;;;;6125573;23;20165;-74
2022/07/08 08:28:01;;;;;;;3.85;1.63;;;20.60;95.80;;;;;;6125771;23;20150;-73
2022/07/08 08:30:27;;;;;;;1.35;1.02;;;20.40;96.50;;;;;;6124145;23;20687;-74
2022/07/08 08:32:54;;;;;;;4.72;1.65;;;20.60;96.00;;;;;;6125724;23;20150;-73
2022/07/08 08:35:19;;;;;;;2.67;1.67;;;21.00;93.50;;;;;;6125574;23;20158;-74
2022/07/08 08:37:45;;;;;;;1.45;1.20;;;21.10;93.60;;;;;;6125018;23;20225;-73
2022/07/08 08:40:12;;;;;;;1.30;1.20;;;21.10;93.70;;;;;;6124770;23;20229;-73
2022/07/08 08:42:39;;;;;;;3.15;1.80;;;21.20;92.70;;;;;;6125398;23;20611;-73
2022/07/08 08:45:05;;;;;;;2.33;1.33;;;21.20;93.30;;;;;;6125219;23;20165;-73
2022/07/08 08:47:33;;;;;;;5.47;2.25;;;21.40;91.60;;;;;;6099143;23;20154;-73
2022/07/08 08:52:52;;;;;;;4.63;1.88;;;21.20;92.70;;;;;;6125451;23;20157;-72
2022/07/08 08:55:26;;;;;;;3.15;1.25;;;21.20;93.00;;;;;;6125478;23;20138;-72
2022/07/08 08:57:58;;;;;;;1.50;1.00;;;21.50;91.60;;;;;;6125609;23;20154;-72
2022/07/08 09:00:25;;;;;;;3.28;1.60;;;21.80;90.10;;;;;;6099473;23;20619;-72
2022/07/08 09:02:52;;;;;;;3.03;1.48;;;21.80;89.40;;;;;;6125600;23;20208;-73
2022/07/08 09:05:20;;;;;;;3.40;2.25;;;21.50;90.80;;;;;;6125104;23;20157;-73
2022/07/08 09:07:45;;;;;;;1.98;1.48;;;21.20;91.70;;;;;;6125075;23;20205;-73
2022/07/08 09:10:16;;;;;;;2.90;1.23;;;21.20;90.40;;;;;;6125056;23;20511;-73
2022/07/08 09:13:15;;;;;;;3.08;1.65;;;21.10;90.00;;;;;;6125645;23;20572;-73
2022/07/08 09:15:46;;;;;;;2.15;0.90;;;20.70;91.40;;;;;;6125118;23;20652;-73
2022/07/08 09:18:16;;;;;;;1.65;1.30;;;20.30;92.30;;;;;;6125811;23;20198;-73
2022/07/08 09:20:55;;;;;;;4.28;1.50;;;19.90;92.70;;;;;;6125355;23;20244;-73
2022/07/08 09:23:23;;;;;;;1.98;1.52;;;20.00;93.30;;;;;;6124654;23;20180;-73
2022/07/08 09:25:54;;;;;;;2.78;1.58;;;20.00;94.40;;;;;;6124511;23;20162;-74
2022/07/08 09:28:35;;;;;;;2.25;1.50;;;20.30;94.50;;;;;;6125267;23;20154;-73
2022/07/08 09:31:06;;;;;;;5.05;1.83;;;20.90;93.10;;;;;;6124711;23;20619;-74
2022/07/08 09:33:33;;;;;;;1.52;1.42;;;21.50;91.20;;;;;;6125474;23;20237;-73
2022/07/08 09:36:01;;;;;;;4.03;1.50;;;21.50;90.80;;;;;;6125320;23;20157;-72
2022/07/08 09:38:29;;;;;;;4.40;1.83;;;21.30;91.80;;;;;;6124967;23;20154;-73
2022/07/08 09:40:59;;;;;;;3.35;1.50;;;21.20;91.30;;;;;;6122273;23;20257;-73
2022/07/08 09:43:26;;;;;;;2.03;1.48;;;21.30;91.70;;;;;;6124503;23;20170;-74
2022/07/08 09:45:53;;;;;;;2.80;1.35;;;21.70;90.20;;;;;;6098525;23;20184;-75
2022/07/08 09:48:19;;;;;;;2.33;1.50;;;22.00;91.50;;;;;;6125392;23;20671;-75
2022/07/08 09:50:47;;;;;;;3.67;1.50;;;22.50;90.10;;;;;;6124860;23;20206;-74
2022/07/08 09:53:24;;;;;;;7.75;1.70;;;23.60;84.50;;;;;;6126410;23;20634;-74
2022/07/08 09:55:52;;;;;;;1.42;1.33;;;23.90;84.50;;;;;;6125346;23;20142;-74
2022/07/08 09:58:24;;;;;;;2.63;1.25;;;24.00;81.30;;;;;;6125945;23;20204;-74
2022/07/08 10:00:51;;;;;;;1.70;1.40;;;24.10;81.90;;;;;;6125926;23;20313;-74
2022/07/08 10:03:17;;;;;;;2.38;1.73;;;24.50;82.50;;;;;;6125757;23;20322;-74
2022/07/08 10:05:44;;;;;;;1.88;1.38;;;24.70;80.10;;;;;;6125848;23;20150;-74
2022/07/08 10:08:11;;;;;;;2.60;1.23;;;24.60;78.30;;;;;;6126396;23;20161;-73
2022/07/08 10:10:38;;;;;;;3.95;1.27;;;24.20;79.30;;;;;;6125579;23;20170;-73
2022/07/08 10:13:04;;;;;;;2.08;1.20;;;23.70;78.40;;;;;;6126118;23;20154;-74
2022/07/08 10:15:37;;;;;;;4.15;1.48;;;22.90;80.40;;;;;;6125660;23;20490;-74
2022/07/08 10:18:22;;;;;;;3.78;1.42;;;22.10;83.10;;;;;;6125900;23;20174;-75
2022/07/08 10:20:52;;;;;;;3.45;1.60;;;21.50;86.00;;;;;;6126272;23;20217;-73
2022/07/08 10:23:39;;;;;;;2.55;1.60;;;21.10;86.70;;;;;;6125377;23;20249;-72
2022/07/08 10:26:06;;;;;;;1.77;1.05;;;20.90;90.00;;;;;;6123153;23;20165;-72
2022/07/08 10:28:39;;;;;;;3.70;1.60;;;20.80;89.90;;;;;;6125644;23;20180;-71
2022/07/08 10:31:20;;;;;;;3.53;1.48;;;20.90;88.30;;;;;;6125930;23;20230;-72
2022/07/08 10:33:46;;;;;;;2.08;1.60;;;20.60;89.60;;;;;;6125122;23;20634;-73
2022/07/08 10:36:12;;;;;;;2.35;1.63;;;20.20;91.10;;;;;;6124619;23;20174;-72
2022/07/08 10:38:39;;;;;;;3.38;1.98;;;20.10;91.00;;;;;;6125471;23;20186;-72
2022/07/08 10:41:13;;;;;;;3.22;1.65;;;20.20;91.80;;;;;;6125546;23;20170;-73
2022/07/08 10:43:52;;;;;;;3.28;1.63;;;20.20;91.80;;;;;;6125297;23;20166;-72
2022/07/08 10:46:20;;;;;;;4.00;1.70;;;20.30;91.70;;;;;;6122789;23;20233;-73
2022/07/08 10:48:46;;;;;;;2.35;1.60;;;20.50;91.80;;;;;;6124760;23;20134;-73
2022/07/08 10:51:20;;;;;;;3.65;1.60;;;20.80;90.80;;;;;;6125247;23;20172;-73
2022/07/08 10:53:52;;;;;;;3.03;2.08;;;21.20;90.00;;;;;;6126281;23;20603;-73
2022/07/08 10:56:55;;;;;;;1.63;1.48;;;21.20;90.70;;;;;;6126131;23;20227;-73
2022/07/08 10:59:37;;;;;;;2.10;1.48;;;21.40;89.40;;;;;;6124493;23;20150;-73
2022/07/08 11:02:13;;;;;;;1.70;1.50;;;21.80;87.60;;;;;;6125130;23;20157;-73
2022/07/08 11:04:39;;;;;;;2.25;1.38;;;22.30;83.90;;;;;;6123916;23;20166;-73
2022/07/08 11:07:32;;;;;;;1.85;1.33;;;22.50;85.60;;;;;;6123756;23;20174;-73
2022/07/08 11:09:57;;;;;;;2.30;1.35;;;23.00;85.30;;;;;;6121523;23;20260;-72
2022/07/08 11:12:29;;;;;;;3.78;1.50;;;23.50;81.80;;;;;;6122212;23;20150;-73
2022/07/08 11:14:56;;;;;;;2.72;1.50;;;24.00;83.40;;;;;;6121384;23;20193;-73
2022/07/08 11:17:29;;;;;;;1.80;1.50;;;24.70;80.70;;;;;;6121906;23;20154;-73
2022/07/08 11:19:56;;;;;;;1.67;1.55;;;25.10;77.90;;;;;;6097709;23;20213;-74
2022/07/08 11:22:23;;;;;;;4.15;1.73;;;25.00;78.40;;;;;;6123747;23;20233;-73
2022/07/08 11:24:50;;;;;;;2.92;1.58;;;25.40;75.50;;;;;;6122557;23;20185;-73
2022/07/08 11:27:16;;;;;;;2.08;1.40;;;25.60;74.30;;;;;;6123384;23;20150;-74
2022/07/08 11:29:49;;;;;;;3.10;1.40;;;25.40;76.00;;;;;;6123339;23;20177;-73
2022/07/08 11:32:17;;;;;;;4.47;1.60;;;25.00;76.00;;;;;;6122901;23;20435;-73
2022/07/08 11:34:43;;;;;;;2.42;1.45;;;24.70;78.40;;;;;;6124597;23;20622;-73
2022/07/08 11:37:09;;;;;;;2.70;1.33;;;24.80;74.50;;;;;;6125236;23;20201;-75
2022/07/08 11:39:35;;;;;;;2.25;1.60;;;24.90;74.60;;;;;;6123551;23;20174;-74
2022/07/08 11:42:00;;;;;;;2.72;1.25;;;24.90;73.10;;;;;;6098617;23;20158;-75
2022/07/08 11:44:27;;;;;;;3.28;1.25;;;24.60;74.00;;;;;;6125360;23;20169;-74
2022/07/08 11:46:54;;;;;;;3.13;1.40;;;24.50;72.60;;;;;;6124474;23;20150;-74
2022/07/08 11:49:21;;;;;;;4.47;1.35;;;24.30;74.50;;;;;;6123853;23;20566;-74
2022/07/08 11:51:48;;;;;;;2.70;1.33;;;24.70;73.10;;;;;;6123897;23;20161;-74
2022/07/08 11:54:14;;;;;;;4.80;1.48;;;25.30;70.50;;;;;;6124900;23;20161;-75
2022/07/08 11:56:41;;;;;;;3.05;1.60;;;25.50;72.80;;;;;;6123876;23;20158;-75
2022/07/08 11:59:06;;;;;;;3.40;1.77;;;25.20;70.80;;;;;;6123892;23;20154;-75
2022/07/08 12:01:33;;;;;;;1.88;1.30;;;25.70;69.90;;;;;;6125219;23;20189;-73
2022/07/08 12:03:59;;;;;;;3.08;1.50;;;26.30;70.80;;;;;;6124927;23;20198;-73
2022/07/08 12:06:26;;;;;;;1.77;1.60;;;27.30;66.60;;;;;;6123652;23;20173;-71
2022/07/08 12:08:53;;;;;;;1.52;1.38;;;27.80;64.10;;;;;;6123091;23;20156;-72
2022/07/08 12:11:21;;;;;;;4.63;1.27;;;28.00;62.70;;;;;;6121605;23;20626;-76
2022/07/08 12:13:49;;;;;;;1.35;1.25;;;28.00;62.50;;;;;;6123375;23;20154;-73
2022/07/08 12:16:31;;;;;;;2.25;1.38;;;27.50;64.20;;;;;;6124067;23;20178;-73
2022/07/08 12:18:58;;;;;;;2.80;1.58;;;27.10;65.80;;;;;;6123734;23;20148;-73
2022/07/08 12:21:24;;;;;;;2.13;1.48;;;27.00;63.20;;;;;;6123365;23;20575;-73
2022/07/08 12:24:01;;;;;;;3.55;1.58;;;26.70;63.80;;;;;;6124034;23;20178;-73
2022/07/08 12:26:26;;;;;;;3.17;1.67;;;26.30;65.60;;;;;;6124722;23;20145;-73
2022/07/08 12:28:53;;;;;;;5.40;1.10;;;25.80;66.30;;;;;;6097398;23;20158;-73
2022/07/08 12:31:31;;;;;;;2.90;1.42;;;25.40;68.90;;;;;;6124380;23;20651;-73
2022/07/08 12:34:01;;;;;;;2.03;1.10;;;24.80;69.80;;;;;;6124526;23;20176;-74
2022/07/08 12:36:28;;;;;;;2.65;1.30;;;24.60;69.60;;;;;;6124700;23;20150;-74
2022/07/08 12:38:54;;;;;;;4.53;1.70;;;24.40;70.30;;;;;;6124832;23;20475;-75
2022/07/08 12:41:20;;;;;;;2.47;1.73;;;24.00;73.20;;;;;;6123595;23;20173;-75
2022/07/08 12:43:46;;;;;;;3.75;1.75;;;23.60;76.50;;;;;;6124271;23;20180;-76
2022/07/08 12:46:12;;;;;;;6.05;2.60;;;23.80;76.10;;;;;;6123828;23;20138;-75
2022/07/08 12:48:38;;;;;;;3.08;1.48;;;24.10;76.80;;;;;;6124441;23;20138;-75
2022/07/08 12:51:03;;;;;;;2.78;1.35;;;24.70;75.40;;;;;;6124546;23;20174;-75
2022/07/08 12:53:29;;;;;;;3.10;1.60;;;26.00;72.40;;;;;;6124341;23;20138;-73